Terminal Aerodrome Forecast
Issued by NWS

Home | Current Version | Previous Version | Text Only | Print | Product List | Glossary On
Versions: 1 2 3 4 5 6 7 8 9 10 11 12 13 14 15 16 17 18 19 20 21 22 23 24 25 26 27 28 29 30 31 32 33 34
000
FTUS45 KGJT 270532
TAFCNY
TAF
KCNY 270532Z 2706/2806 27006KT P6SM VCSH SCT080 BKN120
      TEMPO 2706/2708 -RA BKN070
     FM270800 VRB03KT P6SM SCT200
     FM272000 23010G18KT P6SM SCT090 BKN140
     FM280300 06009KT P6SM SCT090 BKN140=

USA.gov is the U.S. government's official web portal to all federal, state and local government web resources and services.